Terminal Aerodrome Forecast
Issued by NWS

Home | Current Version | Previous Version | Text Only | Print | Product List | Glossary On
Versions: 1 2 3 4 5 6 7 8 9 10 11 12
000
FTUS45 KTFX 171700
TAFGTF
TAF
KGTF 171723Z 1718/1818 20006KT P6SM SCT100 BKN180
     FM172000 22010G18KT P6SM VCTS SCT080CB BKN150
     FM180200 20008KT P6SM BKN180
     FM181700 23011KT P6SM VCSH SCT080 BKN120=

USA.gov is the U.S. government's official web portal to all federal, state and local government web resources and services.